Terminal Aerodrome Forecast
Issued by NWS Sioux Falls, SD

Home | Current Version | Previous Version | Graphics & Text | Print | Product List | Glossary On
Versions: 1 2 3 4 5 6 7 8 9 10 11 12 13 14 15 16 17
000
FTUS43 KFSD 302224 AAA
TAFHON
TAF AMD
KHON 302224Z 3022/0118 20014G20KT P6SM BKN070
     FM010100 19009KT P6SM BKN120
     FM011600 24007KT P6SM OVC100=

USA.gov is the U.S. government's official web portal to all federal, state and local government web resources and services.